sensor_id;sensor_type;location;lat;lon;timestamp;pressure;altitude;pressure_sealevel;temperature;humidity
36304;BME280;22335;49.800;8.596;2023-02-17T00:02:54;101254.84;;;12.91;56.01
36304;BME280;22335;49.800;8.596;2023-02-17T00:09:39;101246.31;;;12.98;55.75
36304;BME280;22335;49.800;8.596;2023-02-17T00:16:24;101250.69;;;12.99;55.52
36304;BME280;22335;49.800;8.596;2023-02-17T00:23:08;101249.56;;;13.05;55.43
36304;BME280;22335;49.800;8.596;2023-02-17T00:29:53;101251.19;;;13.11;55.15
36304;BME280;22335;49.800;8.596;2023-02-17T00:36:37;101164.97;;;12.52;55.71
36304;BME280;22335;49.800;8.596;2023-02-17T00:43:22;101247.13;;;12.98;55.50
36304;BME280;22335;49.800;8.596;2023-02-17T00:50:09;101250.38;;;13.05;55.42
36304;BME280;22335;49.800;8.596;2023-02-17T00:56:52;101188.22;;;12.70;55.47
36304;BME280;22335;49.800;8.596;2023-02-17T01:03:37;101245.97;;;13.09;55.57
36304;BME280;22335;49.800;8.596;2023-02-17T01:10:22;101240.47;;;13.09;55.69
36304;BME280;22335;49.800;8.596;2023-02-17T01:17:06;101250.84;;;13.23;55.15
36304;BME280;22335;49.800;8.596;2023-02-17T01:23:50;101248.88;;;13.38;55.42
36304;BME280;22335;49.800;8.596;2023-02-17T01:30:36;101254.59;;;13.47;55.17
36304;BME280;22335;49.800;8.596;2023-02-17T01:37:20;101248.47;;;13.60;54.98
36304;BME280;22335;49.800;8.596;2023-02-17T01:44:06;101251.13;;;13.71;54.84
36304;BME280;22335;49.800;8.596;2023-02-17T01:51:01;101249.94;;;13.82;54.81
36304;BME280;22335;49.800;8.596;2023-02-17T01:57:49;101245.75;;;13.90;54.80
36304;BME280;22335;49.800;8.596;2023-02-17T02:04:37;101183.00;;;13.63;54.79
36304;BME280;22335;49.800;8.596;2023-02-17T02:11:23;101217.97;;;13.91;55.09
36304;BME280;22335;49.800;8.596;2023-02-17T02:18:27;101213.31;;;13.87;55.10
36304;BME280;22335;49.800;8.596;2023-02-17T02:25:44;101197.06;;;13.90;55.20
36304;BME280;22335;49.800;8.596;2023-02-17T02:33:00;101181.00;;;14.02;55.74
36304;BME280;22335;49.800;8.596;2023-02-17T02:39:48;101169.84;;;14.18;55.07
36304;BME280;22335;49.800;8.596;2023-02-17T02:46:34;101165.69;;;14.20;55.26
36304;BME280;22335;49.800;8.596;2023-02-17T02:53:40;101161.06;;;14.16;55.56
36304;BME280;22335;49.800;8.596;2023-02-17T03:00:51;101151.13;;;14.20;55.41
36304;BME280;22335;49.800;8.596;2023-02-17T03:07:41;101141.25;;;14.19;55.27
36304;BME280;22335;49.800;8.596;2023-02-17T03:14:35;101085.56;;;13.79;55.51
36304;BME280;22335;49.800;8.596;2023-02-17T03:21:20;101130.28;;;14.14;55.42
36304;BME280;22335;49.800;8.596;2023-02-17T03:28:04;101138.72;;;14.22;55.42
36304;BME280;22335;49.800;8.596;2023-02-17T03:34:49;101127.34;;;14.29;55.92
36304;BME280;22335;49.800;8.596;2023-02-17T03:41:32;101133.63;;;14.35;55.73
36304;BME280;22335;49.800;8.596;2023-02-17T04:03:20;101130.97;;;14.48;55.60
36304;BME280;22335;49.800;8.596;2023-02-17T04:10:04;101126.03;;;14.45;55.81
36304;BME280;22335;49.800;8.596;2023-02-17T04:16:50;101141.69;;;14.50;55.66
36304;BME280;22335;49.800;8.596;2023-02-17T04:23:35;101106.97;;;14.30;56.04
36304;BME280;22335;49.800;8.596;2023-02-17T04:30:19;101154.81;;;14.58;55.88
36304;BME280;22335;49.800;8.596;2023-02-17T04:37:03;101151.56;;;14.56;55.93
36304;BME280;22335;49.800;8.596;2023-02-17T04:43:49;101073.91;;;14.11;56.13
36304;BME280;22335;49.800;8.596;2023-02-17T04:50:32;101145.25;;;14.56;56.38
36304;BME280;22335;49.800;8.596;2023-02-17T04:57:16;101144.22;;;14.46;56.42
36304;BME280;22335;49.800;8.596;2023-02-17T05:04:01;101164.13;;;14.38;56.40
36304;BME280;22335;49.800;8.596;2023-02-17T05:10:44;101169.56;;;14.19;56.88
36304;BME280;22335;49.800;8.596;2023-02-17T05:17:28;101163.53;;;14.17;57.06
36304;BME280;22335;49.800;8.596;2023-02-17T05:24:12;101146.47;;;14.15;57.38
36304;BME280;22335;49.800;8.596;2023-02-17T05:30:56;101161.13;;;14.11;57.52
36304;BME280;22335;49.800;8.596;2023-02-17T05:37:39;101109.31;;;13.65;57.59
36304;BME280;22335;49.800;8.596;2023-02-17T05:44:25;101148.41;;;13.91;57.93
36304;BME280;22335;49.800;8.596;2023-02-17T05:51:08;101156.94;;;13.89;58.19
36304;BME280;22335;49.800;8.596;2023-02-17T05:57:54;101165.75;;;13.86;57.92
36304;BME280;22335;49.800;8.596;2023-02-17T06:04:39;101158.44;;;13.76;58.45
36304;BME280;22335;49.800;8.596;2023-02-17T06:11:23;101164.84;;;13.67;58.51
36304;BME280;22335;49.800;8.596;2023-02-17T06:18:06;101147.91;;;13.54;58.89
36304;BME280;22335;49.800;8.596;2023-02-17T06:24:51;101173.28;;;13.75;58.99
36304;BME280;22335;49.800;8.596;2023-02-17T06:31:34;101174.56;;;13.88;58.82
36304;BME280;22335;49.800;8.596;2023-02-17T06:38:18;101178.25;;;14.02;59.06
36304;BME280;22335;49.800;8.596;2023-02-17T06:45:03;101175.56;;;14.21;58.74
36304;BME280;22335;49.800;8.596;2023-02-17T06:51:48;101176.84;;;14.34;58.51
36304;BME280;22335;49.800;8.596;2023-02-17T06:58:31;101187.88;;;14.29;58.76
36304;BME280;22335;49.800;8.596;2023-02-17T07:05:17;101194.78;;;14.26;59.02
36304;BME280;22335;49.800;8.596;2023-02-17T07:12:01;101218.34;;;14.38;59.05
36304;BME280;22335;49.800;8.596;2023-02-17T07:18:45;101219.69;;;14.40;59.05
36304;BME280;22335;49.800;8.596;2023-02-17T07:25:29;101226.66;;;14.33;59.17
36304;BME280;22335;49.800;8.596;2023-02-17T07:32:13;101203.53;;;14.04;59.50
36304;BME280;22335;49.800;8.596;2023-02-17T07:38:57;101219.19;;;14.09;59.47
36304;BME280;22335;49.800;8.596;2023-02-17T07:45:43;101203.66;;;13.94;59.99
36304;BME280;22335;49.800;8.596;2023-02-17T07:52:27;101200.44;;;13.82;60.39
36304;BME280;22335;49.800;8.596;2023-02-17T07:59:11;101149.72;;;13.35;60.20
36304;BME280;22335;49.800;8.596;2023-02-17T08:05:56;101109.19;;;13.11;60.66
36304;BME280;22335;49.800;8.596;2023-02-17T08:12:39;101211.09;;;13.59;60.84
36304;BME280;22335;49.800;8.596;2023-02-17T08:19:46;101196.22;;;13.60;61.30
36304;BME280;22335;49.800;8.596;2023-02-17T08:26:31;101194.72;;;13.78;61.06
36304;BME280;22335;49.800;8.596;2023-02-17T08:33:14;101207.31;;;13.84;61.19
36304;BME280;22335;49.800;8.596;2023-02-17T08:39:59;101190.81;;;13.84;61.15
36304;BME280;22335;49.800;8.596;2023-02-17T08:46:44;101205.63;;;13.89;61.65
36304;BME280;22335;49.800;8.596;2023-02-17T08:53:28;101211.66;;;13.91;61.32
36304;BME280;22335;49.800;8.596;2023-02-17T09:00:13;101160.19;;;13.62;61.50
36304;BME280;22335;49.800;8.596;2023-02-17T09:06:58;101209.72;;;13.91;61.98
36304;BME280;22335;49.800;8.596;2023-02-17T09:13:45;101218.78;;;13.92;62.08
36304;BME280;22335;49.800;8.596;2023-02-17T09:20:30;101211.13;;;13.89;61.86
36304;BME280;22335;49.800;8.596;2023-02-17T09:27:15;101228.47;;;13.84;62.24
36304;BME280;22335;49.800;8.596;2023-02-17T09:33:58;101194.59;;;13.59;62.57
36304;BME280;22335;49.800;8.596;2023-02-17T09:40:45;101229.09;;;13.76;63.21
36304;BME280;22335;49.800;8.596;2023-02-17T09:47:34;101168.06;;;13.40;63.62
36304;BME280;22335;49.800;8.596;2023-02-17T09:54:26;101217.31;;;13.70;63.81
36304;BME280;22335;49.800;8.596;2023-02-17T10:01:17;101238.75;;;13.68;64.18
36304;BME280;22335;49.800;8.596;2023-02-17T10:08:07;101241.50;;;13.68;64.66
36304;BME280;22335;49.800;8.596;2023-02-17T10:14:57;101255.47;;;13.77;64.60
36304;BME280;22335;49.800;8.596;2023-02-17T10:21:45;101262.03;;;13.81;64.76
36304;BME280;22335;49.800;8.596;2023-02-17T10:28:43;101237.28;;;13.81;65.09
36304;BME280;22335;49.800;8.596;2023-02-17T10:35:43;101238.97;;;13.77;65.45
36304;BME280;22335;49.800;8.596;2023-02-17T10:42:35;101242.28;;;13.79;65.77
36304;BME280;22335;49.800;8.596;2023-02-17T10:49:25;101248.28;;;13.81;66.10
36304;BME280;22335;49.800;8.596;2023-02-17T10:56:13;101194.63;;;13.54;66.17
36304;BME280;22335;49.800;8.596;2023-02-17T11:03:00;101238.81;;;13.97;66.22
36304;BME280;22335;49.800;8.596;2023-02-17T11:09:49;101207.69;;;13.73;66.81
36304;BME280;22335;49.800;8.596;2023-02-17T11:16:36;101241.38;;;14.18;66.12
36304;BME280;22335;49.800;8.596;2023-02-17T11:23:23;101237.84;;;14.41;65.84
36304;BME280;22335;49.800;8.596;2023-02-17T11:30:14;101114.56;;;13.90;65.85
36304;BME280;22335;49.800;8.596;2023-02-17T11:37:02;101192.28;;;14.59;65.63
36304;BME280;22335;49.800;8.596;2023-02-17T11:43:57;101151.56;;;14.56;65.23
36304;BME280;22335;49.800;8.596;2023-02-17T11:50:46;101154.84;;;14.77;65.13
36304;BME280;22335;49.800;8.596;2023-02-17T11:57:37;101117.94;;;14.59;65.36
36304;BME280;22335;49.800;8.596;2023-02-17T12:04:26;101200.97;;;15.28;65.25
36304;BME280;22335;49.800;8.596;2023-02-17T12:11:18;101199.78;;;15.34;65.04
36304;BME280;22335;49.800;8.596;2023-02-17T12:18:23;101196.66;;;15.41;65.28
36304;BME280;22335;49.800;8.596;2023-02-17T12:25:25;101177.28;;;15.46;64.99
36304;BME280;22335;49.800;8.596;2023-02-17T12:32:23;101188.88;;;15.62;64.99
36304;BME280;22335;49.800;8.596;2023-02-17T12:39:21;101178.03;;;15.71;64.84
36304;BME280;22335;49.800;8.596;2023-02-17T12:46:09;101177.78;;;15.86;64.59
36304;BME280;22335;49.800;8.596;2023-02-17T12:52:59;101163.88;;;15.91;64.61
36304;BME280;22335;49.800;8.596;2023-02-17T12:59:46;101161.44;;;16.03;64.11
36304;BME280;22335;49.800;8.596;2023-02-17T13:06:33;101156.13;;;16.07;63.81
36304;BME280;22335;49.800;8.596;2023-02-17T13:13:27;101150.59;;;16.07;63.66
36304;BME280;22335;49.800;8.596;2023-02-17T13:20:25;101137.72;;;16.02;63.71
36304;BME280;22335;49.800;8.596;2023-02-17T13:27:19;101148.38;;;16.36;62.57
36304;BME280;22335;49.800;8.596;2023-02-17T13:34:07;101160.00;;;16.06;63.36
36304;BME280;22335;49.800;8.596;2023-02-17T13:40:51;101114.06;;;15.68;63.08
36304;BME280;22335;49.800;8.596;2023-02-17T13:47:35;101159.72;;;16.07;63.08
36304;BME280;22335;49.800;8.596;2023-02-17T13:54:21;101147.34;;;16.05;63.19
36304;BME280;22335;49.800;8.596;2023-02-17T14:01:07;101131.19;;;16.12;63.03
36304;BME280;22335;49.800;8.596;2023-02-17T14:07:58;101116.50;;;16.17;62.97
36304;BME280;22335;49.800;8.596;2023-02-17T14:14:46;101109.22;;;16.21;62.95
36304;BME280;22335;49.800;8.596;2023-02-17T14:21:30;101078.66;;;16.03;62.85
36304;BME280;22335;49.800;8.596;2023-02-17T14:28:18;101114.44;;;16.22;63.11
36304;BME280;22335;49.800;8.596;2023-02-17T14:35:19;101108.19;;;16.30;62.93
36304;BME280;22335;49.800;8.596;2023-02-17T14:42:04;101108.50;;;16.43;62.57
36304;BME280;22335;49.800;8.596;2023-02-17T14:48:48;101115.03;;;16.47;62.58
36304;BME280;22335;49.800;8.596;2023-02-17T14:55:35;101115.03;;;16.47;62.46
36304;BME280;22335;49.800;8.596;2023-02-17T15:02:23;101109.72;;;16.50;62.40
36304;BME280;22335;49.800;8.596;2023-02-17T15:09:10;101122.84;;;16.45;62.36
36304;BME280;22335;49.800;8.596;2023-02-17T15:15:55;101117.81;;;16.47;62.55
36304;BME280;22335;49.800;8.596;2023-02-17T15:22:39;101118.50;;;16.52;62.50
36304;BME280;22335;49.800;8.596;2023-02-17T15:29:25;101094.59;;;16.48;62.47
36304;BME280;22335;49.800;8.596;2023-02-17T15:36:13;101061.06;;;16.13;63.05
36304;BME280;22335;49.800;8.596;2023-02-17T15:42:58;101135.69;;;16.49;62.57
36304;BME280;22335;49.800;8.596;2023-02-17T15:49:45;101113.31;;;16.37;62.64
36304;BME280;22335;49.800;8.596;2023-02-17T15:56:34;101133.88;;;16.45;62.53
36304;BME280;22335;49.800;8.596;2023-02-17T16:03:23;101134.28;;;16.52;62.36
36304;BME280;22335;49.800;8.596;2023-02-17T16:10:08;101133.88;;;16.45;62.58
36304;BME280;22335;49.800;8.596;2023-02-17T16:16:54;101128.13;;;16.27;62.90
36304;BME280;22335;49.800;8.596;2023-02-17T16:23:38;101129.66;;;16.06;63.38
36304;BME280;22335;49.800;8.596;2023-02-17T16:30:31;101129.25;;;15.66;63.98
36304;BME280;22335;49.800;8.596;2023-02-17T16:37:17;101157.50;;;15.77;63.87
36304;BME280;22335;49.800;8.596;2023-02-17T16:44:01;101153.31;;;15.79;64.21
36304;BME280;22335;49.800;8.596;2023-02-17T16:50:47;101171.41;;;15.85;63.94
36304;BME280;22335;49.800;8.596;2023-02-17T16:57:34;101179.81;;;15.94;63.84
36304;BME280;22335;49.800;8.596;2023-02-17T17:04:19;101191.56;;;16.00;63.72
36304;BME280;22335;49.800;8.596;2023-02-17T17:11:03;101164.19;;;15.89;63.47
36304;BME280;22335;49.800;8.596;2023-02-17T17:17:54;101202.88;;;16.31;62.91
36304;BME280;22335;49.800;8.596;2023-02-17T17:24:38;101186.53;;;16.48;62.38
36304;BME280;22335;49.800;8.596;2023-02-17T17:31:23;101167.00;;;16.45;62.55
36304;BME280;22335;49.800;8.596;2023-02-17T17:38:12;101181.19;;;16.24;62.97
36304;BME280;22335;49.800;8.596;2023-02-17T17:45:04;101176.91;;;16.18;62.71
36304;BME280;22335;49.800;8.596;2023-02-17T17:51:49;101174.22;;;15.99;63.18
36304;BME280;22335;49.800;8.596;2023-02-17T17:58:34;101126.16;;;15.54;63.32
36304;BME280;22335;49.800;8.596;2023-02-17T18:05:19;101191.16;;;15.93;63.33
36304;BME280;22335;49.800;8.596;2023-02-17T18:12:08;101197.69;;;15.97;63.36
36304;BME280;22335;49.800;8.596;2023-02-17T18:18:56;101217.88;;;16.11;62.97
36304;BME280;22335;49.800;8.596;2023-02-17T18:25:40;101233.03;;;16.27;62.45
36304;BME280;22335;49.800;8.596;2023-02-17T18:32:24;101238.47;;;16.32;62.13
36304;BME280;22335;49.800;8.596;2023-02-17T18:39:09;101251.56;;;16.41;62.16
36304;BME280;22335;49.800;8.596;2023-02-17T18:45:52;101258.81;;;16.50;61.83
36304;BME280;22335;49.800;8.596;2023-02-17T18:52:36;101257.53;;;16.62;61.42
36304;BME280;22335;49.800;8.596;2023-02-17T18:59:21;101255.16;;;16.69;61.24
36304;BME280;22335;49.800;8.596;2023-02-17T19:06:08;101229.38;;;16.46;61.04
36304;BME280;22335;49.800;8.596;2023-02-17T19:12:52;101284.28;;;16.80;60.66
36304;BME280;22335;49.800;8.596;2023-02-17T19:19:39;101285.91;;;16.95;60.31
36304;BME280;22335;49.800;8.596;2023-02-17T19:26:23;101278.72;;;16.94;60.15
36304;BME280;22335;49.800;8.596;2023-02-17T19:33:06;101298.28;;;16.83;60.30
36304;BME280;22335;49.800;8.596;2023-02-17T19:39:51;101224.25;;;16.39;60.42
36304;BME280;22335;49.800;8.596;2023-02-17T19:46:36;101249.94;;;16.53;60.31
36304;BME280;22335;49.800;8.596;2023-02-17T19:53:19;101286.88;;;16.71;60.43
36304;BME280;22335;49.800;8.596;2023-02-17T20:00:06;101288.09;;;16.65;60.30
36304;BME280;22335;49.800;8.596;2023-02-17T20:06:51;101288.44;;;16.64;60.43
36304;BME280;22335;49.800;8.596;2023-02-17T20:13:35;101306.41;;;16.61;60.41
36304;BME280;22335;49.800;8.596;2023-02-17T20:20:27;101276.53;;;16.35;60.44
36304;BME280;22335;49.800;8.596;2023-02-17T20:27:11;101315.72;;;16.65;60.30
36304;BME280;22335;49.800;8.596;2023-02-17T20:33:54;101302.72;;;16.66;60.22
36304;BME280;22335;49.800;8.596;2023-02-17T20:40:39;101307.66;;;16.69;60.31
36304;BME280;22335;49.800;8.596;2023-02-17T20:47:23;101308.50;;;16.69;60.12
36304;BME280;22335;49.800;8.596;2023-02-17T20:54:06;101296.91;;;16.67;60.06
36304;BME280;22335;49.800;8.596;2023-02-17T21:00:51;101300.09;;;16.74;60.00
36304;BME280;22335;49.800;8.596;2023-02-17T21:07:35;101319.88;;;16.81;59.91
36304;BME280;22335;49.800;8.596;2023-02-17T21:14:19;101310.94;;;16.71;59.83
36304;BME280;22335;49.800;8.596;2023-02-17T21:21:04;101320.38;;;16.83;59.93
36304;BME280;22335;49.800;8.596;2023-02-17T21:27:48;101313.69;;;16.71;60.05
36304;BME280;22335;49.800;8.596;2023-02-17T21:34:34;101282.78;;;16.55;59.99
36304;BME280;22335;49.800;8.596;2023-02-17T21:41:21;101322.75;;;16.76;60.05
36304;BME280;22335;49.800;8.596;2023-02-17T21:48:06;101324.28;;;16.82;59.87
36304;BME280;22335;49.800;8.596;2023-02-17T21:54:50;101322.63;;;16.81;59.95
36304;BME280;22335;49.800;8.596;2023-02-17T22:01:35;101293.94;;;16.64;60.13
36304;BME280;22335;49.800;8.596;2023-02-17T22:08:19;101304.50;;;16.75;60.09
36304;BME280;22335;49.800;8.596;2023-02-17T22:15:04;101328.69;;;16.83;60.06
36304;BME280;22335;49.800;8.596;2023-02-17T22:21:51;101323.16;;;16.83;60.11
36304;BME280;22335;49.800;8.596;2023-02-17T22:28:34;101317.63;;;16.83;60.07
36304;BME280;22335;49.800;8.596;2023-02-17T22:35:18;101318.97;;;16.86;60.06
36304;BME280;22335;49.800;8.596;2023-02-17T22:42:03;101313.97;;;16.88;60.18
36304;BME280;22335;49.800;8.596;2023-02-17T22:48:49;101295.59;;;16.78;60.12
36304;BME280;22335;49.800;8.596;2023-02-17T22:55:33;101319.06;;;16.95;59.94
36304;BME280;22335;49.800;8.596;2023-02-17T23:02:18;101307.69;;;16.96;60.22
36304;BME280;22335;49.800;8.596;2023-02-17T23:09:02;101307.09;;;16.99;60.06
36304;BME280;22335;49.800;8.596;2023-02-17T23:15:46;101240.09;;;16.47;60.13
36304;BME280;22335;49.800;8.596;2023-02-17T23:22:31;101316.50;;;16.98;60.17
36304;BME280;22335;49.800;8.596;2023-02-17T23:29:15;101321.09;;;17.03;60.16
36304;BME280;22335;49.800;8.596;2023-02-17T23:36:02;101282.63;;;16.79;60.31
36304;BME280;22335;49.800;8.596;2023-02-17T23:42:47;101318.56;;;17.07;60.24
36304;BME280;22335;49.800;8.596;2023-02-17T23:49:31;101311.81;;;17.13;60.16
36304;BME280;22335;49.800;8.596;2023-02-17T23:56:16;101300.22;;;17.11;60.46
